Time;durP1;ratioP1;P1;durP2;ratioP2;P2;SDS_P1;SDS_P2;PMS_P1;PMS_P2;Temp;Humidity;BMP_temperature;BMP_pressure;BME280_temperature;BME280_humidity;BME280_pressure;Samples;Min_cycle;Max_cycle;Signal;HPM_P1;HPM_P2
2023/03/28 00:00:58;;;;;;;14.27;5.90;;;;;;;3.55;100.00;98607.53;5070425;28;20043;-37
2023/03/28 00:03:26;;;;;;;13.82;5.88;;;;;;;3.34;100.00;98577.22;5072474;28;20040;-37
2023/03/28 00:05:55;;;;;;;12.88;5.85;;;;;;;3.49;100.00;98609.41;5077626;28;20036;-38
2023/03/28 00:08:22;;;;;;;12.23;5.88;;;;;;;3.42;100.00;98606.13;5089372;28;20538;-37
2023/03/28 00:10:48;;;;;;;12.43;5.63;;;;;;;3.38;100.00;98596.81;5087937;28;20048;-37
2023/03/28 00:13:14;;;;;;;15.20;6.10;;;;;;;3.37;100.00;98606.22;5073942;28;20605;-38
2023/03/28 00:15:41;;;;;;;12.80;6.22;;;;;;;3.35;100.00;98613.13;5076657;28;20130;-37
2023/03/28 00:18:10;;;;;;;16.67;5.72;;;;;;;3.34;100.00;98611.44;5071031;28;20048;-37
2023/03/28 00:20:37;;;;;;;16.85;6.47;;;;;;;3.33;100.00;98612.31;5086748;28;20048;-38
2023/03/28 00:23:03;;;;;;;15.57;6.13;;;;;;;3.29;100.00;98615.84;5075143;28;20033;-37
2023/03/28 00:25:33;;;;;;;16.10;6.40;;;;;;;3.28;100.00;98621.84;5067641;28;20447;-38
2023/03/28 00:27:59;;;;;;;12.43;5.82;;;;;;;3.28;100.00;98621.84;5086836;28;20093;-37
2023/03/28 00:30:26;;;;;;;14.20;6.05;;;;;;;3.24;100.00;98622.81;5070525;28;20059;-37
2023/03/28 00:32:52;;;;;;;13.60;5.75;;;;;;;3.28;100.00;98628.72;5079028;28;20086;-38
2023/03/28 00:35:17;;;;;;;18.88;6.45;;;;;;;3.26;100.00;98628.75;5073117;28;20064;-39
2023/03/28 00:37:44;;;;;;;16.40;6.22;;;;;;;3.26;100.00;98631.31;5087594;28;20418;-36
2023/03/28 00:40:12;;;;;;;14.63;6.38;;;;;;;3.22;100.00;98628.84;5084774;28;20511;-36
2023/03/28 00:42:42;;;;;;;15.07;6.20;;;;;;;3.20;100.00;98634.00;5087212;28;20051;-36
2023/03/28 00:45:10;;;;;;;;;;;;;;;3.19;100.00;98644.34;5088072;28;20152;-36
2023/03/28 00:48:07;;;;;;;21.00;5.93;;;;;;;3.12;100.00;98640.19;5087539;28;19919;-36
2023/03/28 00:50:36;;;;;;;15.93;6.65;;;;;;;3.11;100.00;98647.06;5080609;28;20032;-39
2023/03/28 00:53:09;;;;;;;20.52;7.05;;;;;;;3.09;100.00;98640.28;5066912;28;20047;-38
2023/03/28 00:55:41;;;;;;;23.90;7.05;;;;;;;3.07;100.00;98642.00;5063424;28;20039;-38
2023/03/28 00:58:12;;;;;;;19.73;7.00;;;;;;;3.09;100.00;98653.09;5066888;28;20045;-37
2023/03/28 01:00:40;;;;;;;22.10;8.65;;;;;;;3.06;100.00;98651.44;5076916;28;20090;-37
2023/03/28 01:03:06;;;;;;;18.35;6.88;;;;;;;3.08;100.00;98651.41;5070695;28;20194;-37
2023/03/28 01:05:34;;;;;;;17.30;7.60;;;;;;;3.09;100.00;98650.53;5104230;28;20116;-37
2023/03/28 01:08:09;;;;;;;14.90;6.93;;;;;;;3.08;100.00;98653.97;5087368;28;20048;-38
2023/03/28 01:10:36;;;;;;;19.13;8.13;;;;;;;3.10;100.00;98657.34;5066072;28;20051;-37
2023/03/28 01:13:05;;;;;;;23.98;7.70;;;;;;;3.08;100.00;98661.69;5066936;28;20074;-36
2023/03/28 01:15:31;;;;;;;21.00;7.03;;;;;;;3.08;100.00;98661.69;5097148;28;20052;-37
2023/03/28 01:18:09;;;;;;;20.13;7.50;;;;;;;2.87;100.00;98632.16;5087309;28;20054;-37
2023/03/28 01:21:05;;;;;;;25.92;7.78;;;;;;;3.01;100.00;98654.97;5092678;28;20575;-36
2023/03/28 01:24:02;;;;;;;24.23;8.13;;;;;;;2.96;100.00;98666.19;5082244;28;20101;-38
2023/03/28 01:26:41;;;;;;;19.48;7.53;;;;;;;2.77;100.00;98631.50;5087193;28;20412;-36
2023/03/28 01:29:45;;;;;;;18.50;6.70;;;;;;;2.98;100.00;98664.41;5079549;28;20060;-37
2023/03/28 01:32:22;;;;;;;22.73;7.22;;;;;;;2.98;100.00;98661.84;5054627;28;20048;-37
2023/03/28 01:35:59;;;;;;;17.88;6.95;;;;;;;2.95;100.00;98663.66;5080362;28;20623;-39
2023/03/28 01:38:32;;;;;;;17.87;6.47;;;;;;;2.90;100.00;98666.31;5051920;28;20048;-38
2023/03/28 01:41:10;;;;;;;13.13;6.00;;;;;;;2.91;100.00;98665.44;5066811;28;20137;-38
2023/03/28 01:44:05;;;;;;;22.05;6.93;;;;;;;2.91;100.00;98670.56;5077596;28;20607;-37
2023/03/28 01:46:48;;;;;;;18.65;6.63;;;;;;;2.89;100.00;98658.63;5074502;28;20056;-37
2023/03/28 01:49:33;;;;;;;18.38;7.20;;;;;;;2.85;100.00;98665.56;5066358;28;20044;-38
2023/03/28 01:52:33;;;;;;;17.88;7.88;;;;;;;2.85;100.00;98667.28;5086559;28;20040;-37
2023/03/28 01:55:19;;;;;;;17.55;7.03;;;;;;;2.78;100.00;98666.53;5066859;28;20047;-37
2023/03/28 01:58:02;;;;;;;26.25;7.35;;;;;;;2.75;100.00;98666.59;5066577;28;20056;-37
2023/03/28 02:00:44;;;;;;;18.50;7.85;;;;;;;2.72;100.00;98674.34;5051370;28;20448;-38
2023/03/28 02:03:30;;;;;;;18.63;6.80;;;;;;;2.67;100.00;98667.66;5066554;28;20137;-38
2023/03/28 02:06:02;;;;;;;19.77;7.60;;;;;;;2.43;100.00;98631.31;5050595;28;20040;-38
2023/03/28 02:08:32;;;;;;;18.92;8.32;;;;;;;2.74;100.00;98672.63;5067015;28;20045;-36
2023/03/28 02:11:18;;;;;;;20.05;7.25;;;;;;;2.62;100.00;98652.31;5065950;28;20044;-36
2023/03/28 02:14:16;;;;;;;19.17;7.93;;;;;;;2.75;100.00;98678.59;5052416;28;20198;-38
2023/03/28 02:16:53;;;;;;;19.15;7.85;;;;;;;2.74;100.00;98679.47;5050819;28;20063;-37
2023/03/28 02:19:37;;;;;;;18.80;7.63;;;;;;;2.70;100.00;98691.50;5095127;28;20086;-36
2023/03/28 02:22:26;;;;;;;24.30;8.88;;;;;;;2.70;100.00;98691.50;5076669;28;20036;-37
2023/03/28 02:24:58;;;;;;;24.83;8.68;;;;;;;2.73;100.00;98695.72;5090471;28;20040;-37
2023/03/28 02:27:35;;;;;;;21.30;9.02;;;;;;;2.72;100.00;98694.88;5102685;28;20035;-37
2023/03/28 02:30:18;;;;;;;21.75;8.50;;;;;;;2.71;100.00;98689.78;5055155;28;20032;-43
2023/03/28 02:32:49;;;;;;;21.00;8.43;;;;;;;2.55;100.00;98672.13;5089377;28;20044;-38
2023/03/28 02:35:21;;;;;;;;;;;;;;;2.66;100.00;98689.88;5073940;28;20180;-36
2023/03/28 02:37:53;;;;;;;23.48;7.72;;;;;;;2.61;100.00;98696.81;5073363;28;19915;-37
2023/03/28 02:40:30;;;;;;;26.67;9.13;;;;;;;2.60;100.00;98707.09;5053440;28;20512;-38
2023/03/28 02:43:25;;;;;;;24.52;9.43;;;;;;;2.56;100.00;98703.75;5087353;28;20048;-37
2023/03/28 02:46:16;;;;;;;17.65;7.65;;;;;;;2.60;100.00;98709.66;5088213;28;20610;-36
2023/03/28 02:48:57;;;;;;;19.17;7.75;;;;;;;2.61;100.00;98712.22;5085125;28;20059;-36
2023/03/28 02:51:30;;;;;;;20.17;7.95;;;;;;;2.58;100.00;98714.81;5069515;28;20033;-36
2023/03/28 02:54:23;;;;;;;24.40;7.30;;;;;;;2.55;100.00;98718.31;5074974;28;20773;-39
2023/03/28 02:57:11;;;;;;;21.35;7.75;;;;;;;2.58;100.00;98717.38;5055481;28;20032;-38
2023/03/28 02:59:54;;;;;;;20.90;8.05;;;;;;;2.56;100.00;98717.41;5053141;28;20036;-37
2023/03/28 03:02:20;;;;;;;25.30;8.13;;;;;;;2.54;100.00;98721.75;5052672;28;20044;-37
2023/03/28 03:04:49;;;;;;;25.42;7.93;;;;;;;2.53;100.00;98719.19;5056007;28;20055;-41
2023/03/28 03:07:17;;;;;;;24.10;7.17;;;;;;;2.52;100.00;98730.31;5056205;28;20040;-38
2023/03/28 03:09:46;;;;;;;26.08;8.05;;;;;;;2.53;100.00;98732.00;5059671;28;21112;-38
2023/03/28 03:12:12;;;;;;;30.05;8.50;;;;;;;2.53;100.00;98739.72;5100586;28;20048;-37
2023/03/28 03:14:38;;;;;;;28.48;8.48;;;;;;;2.53;100.00;98739.72;5089176;28;20047;-44
2023/03/28 03:17:23;;;;;;;23.50;8.10;;;;;;;2.51;100.00;98744.03;5089254;28;20040;-38
2023/03/28 03:19:49;;;;;;;20.05;8.32;;;;;;;2.50;100.00;98737.22;5079350;28;20126;-38
2023/03/28 03:22:15;;;;;;;25.92;8.90;;;;;;;2.52;100.00;98746.56;5071503;28;20047;-38
2023/03/28 03:24:49;;;;;;;28.05;9.13;;;;;;;2.30;100.00;98718.75;5088976;28;20145;-38
2023/03/28 03:27:19;;;;;;;31.92;10.90;;;;;;;2.47;100.00;98753.47;5072135;28;20400;-37
2023/03/28 03:29:47;;;;;;;26.70;10.93;;;;;;;2.48;100.00;98755.19;5079129;28;20135;-38
2023/03/28 03:32:16;;;;;;;29.38;10.30;;;;;;;2.47;100.00;98761.19;5080432;28;20039;-38
2023/03/28 03:34:48;;;;;;;25.38;9.15;;;;;;;2.48;100.00;98759.47;5088567;28;20483;-37
2023/03/28 03:37:16;;;;;;;28.40;10.23;;;;;;;2.47;100.00;98756.06;5079571;28;20116;-37
2023/03/28 03:39:43;;;;;;;26.93;10.50;;;;;;;2.15;100.00;98704.44;5059350;28;20048;-36
2023/03/28 03:42:10;;;;;;;22.25;9.43;;;;;;;2.49;100.00;98758.59;5051583;28;20295;-38
2023/03/28 03:44:36;;;;;;;29.35;11.65;;;;;;;2.32;100.00;98729.81;5082747;28;20573;-36
2023/03/28 03:47:02;;;;;;;30.35;10.77;;;;;;;2.51;100.00;98765.38;5088772;28;20515;-38
2023/03/28 03:49:28;;;;;;;24.25;9.48;;;;;;;2.52;100.00;98769.66;5082198;28;20056;-38
2023/03/28 03:51:55;;;;;;;24.75;9.90;;;;;;;2.51;100.00;98767.13;5100992;27;20036;-39
2023/03/28 03:54:21;;;;;;;27.45;10.20;;;;;;;2.54;100.00;98770.47;5080412;28;20509;-38
2023/03/28 03:56:48;;;;;;;24.80;9.65;;;;;;;2.57;100.00;98769.56;5088549;28;20085;-38
2023/03/28 03:59:15;;;;;;;28.80;13.82;;;;;;;2.62;100.00;98772.06;5085660;28;20093;-38
2023/03/28 04:01:42;;;;;;;24.67;11.73;;;;;;;2.51;100.00;98750.00;5061143;28;20051;-37
2023/03/28 04:04:29;;;;;;;28.38;10.85;;;;;;;2.71;100.00;98775.31;5057345;28;20049;-38
2023/03/28 04:07:14;;;;;;;34.55;12.23;;;;;;;2.78;100.00;98778.59;5068213;28;20046;-40
2023/03/28 04:09:40;;;;;;;25.13;11.32;;;;;;;2.84;100.00;98783.63;5062319;28;20090;-37
2023/03/28 04:12:06;;;;;;;26.23;10.77;;;;;;;2.89;100.00;98777.56;5080822;28;20040;-38
2023/03/28 04:14:43;;;;;;;29.30;10.32;;;;;;;2.97;100.00;98777.44;5059780;28;20044;-38
2023/03/28 04:17:33;;;;;;;25.92;10.40;;;;;;;3.06;100.00;98779.81;5058070;28;20129;-37
2023/03/28 04:20:10;;;;;;;25.23;11.02;;;;;;;3.12;100.00;98784.00;5081561;28;20051;-37
2023/03/28 04:22:42;;;;;;;27.13;9.80;;;;;;;3.20;100.00;98782.09;5068928;28;20044;-37
2023/03/28 04:25:12;;;;;;;20.65;9.43;;;;;;;3.26;100.00;98780.28;5053996;28;20035;-37
2023/03/28 04:27:40;;;;;;;28.25;11.93;;;;;;;3.32;100.00;98771.59;5089270;28;20039;-37
2023/03/28 04:30:08;;;;;;;24.58;10.45;;;;;;;3.24;100.00;98746.09;5079850;28;20059;-35
2023/03/28 04:33:10;;;;;;;22.83;10.00;;;;;;;3.33;100.00;98752.75;5052162;28;20041;-37
2023/03/28 04:35:40;;;;;;;27.20;11.30;;;;;;;3.53;100.00;98773.75;5027689;28;20052;-37
2023/03/28 04:38:06;;;;;;;24.80;10.13;;;;;;;3.38;100.00;98746.66;5070173;28;20092;-36
2023/03/28 04:40:33;;;;;;;25.33;10.55;;;;;;;3.68;100.00;98788.84;5066507;28;20401;-36
2023/03/28 04:43:19;;;;;;;26.08;10.90;;;;;;;3.78;100.00;98787.75;5087483;28;20046;-36
2023/03/28 04:45:48;;;;;;;;;;;;;;;3.88;100.00;98790.13;5103909;28;20050;-36
2023/03/28 04:48:16;;;;;;;21.48;9.60;;;;;;;3.93;100.00;98789.16;5087716;28;19989;-35
2023/03/28 04:50:42;;;;;;;22.02;8.95;;;;;;;3.84;100.00;98751.63;5084807;28;20104;-37
2023/03/28 04:53:09;;;;;;;26.38;10.70;;;;;;;4.07;100.00;98778.56;5086466;28;20093;-37
2023/03/28 04:55:47;;;;;;;28.75;9.80;;;;;;;4.10;100.00;98771.63;5068050;28;20055;-36
2023/03/28 04:58:21;;;;;;;26.60;10.45;;;;;;;4.21;100.00;98769.66;5071315;28;20127;-36
2023/03/28 05:00:48;;;;;;;25.92;10.98;;;;;;;4.53;100.00;98796.34;5084005;28;20028;-37
2023/03/28 05:03:49;;;;;;;15.65;8.00;;;;;;;4.73;100.00;98806.13;4995289;28;20041;-37
2023/03/28 05:06:16;;;;;;;13.63;7.30;;;;;;;4.89;100.00;98805.72;5055373;28;20051;-37
2023/03/28 05:08:42;;;;;;;18.17;5.22;;;;;;;5.06;100.00;98807.88;5086661;28;20043;-37
2023/03/28 05:11:09;;;;;;;15.30;6.32;;;;;;;5.13;100.00;98793.09;5069231;28;20645;-36
2023/03/28 05:13:36;;;;;;;18.25;8.63;;;;;;;5.40;100.00;98807.78;5086075;28;20046;-36
2023/03/28 05:16:18;;;;;;;19.52;8.15;;;;;;;5.54;100.00;98803.97;5073215;28;20040;-36
2023/03/28 05:19:04;;;;;;;17.20;8.07;;;;;;;5.73;100.00;98812.00;5067661;28;20052;-38
2023/03/28 05:21:56;;;;;;;16.50;8.68;;;;;;;5.76;100.00;98793.84;5063594;28;20617;-36
2023/03/28 05:24:23;;;;;;;15.27;7.03;;;;;;;6.05;100.00;98811.09;5078607;28;20131;-37
2023/03/28 05:26:50;;;;;;;15.15;7.78;;;;;;;6.23;100.00;98813.09;5064162;28;20130;-38
2023/03/28 05:29:20;;;;;;;13.95;6.38;;;;;;;6.25;100.00;98793.25;5081358;28;20048;-36
2023/03/28 05:31:47;;;;;;;12.02;5.38;;;;;;;6.54;100.00;98812.16;5082554;28;20043;-36
2023/03/28 05:34:20;;;;;;;11.15;4.93;;;;;;;6.73;100.00;98819.25;5074655;28;20507;-36
2023/03/28 05:36:47;;;;;;;12.48;5.75;;;;;;;6.92;99.59;98827.22;5084899;28;20043;-37
2023/03/28 05:39:24;;;;;;;13.90;5.82;;;;;;;7.13;97.65;98823.94;5085945;28;20048;-36
2023/03/28 05:41:57;;;;;;;12.93;6.20;;;;;;;7.17;96.27;98796.25;5069708;28;20549;-37
2023/03/28 05:44:23;;;;;;;16.80;6.45;;;;;;;7.48;94.87;98821.88;5086557;28;20064;-38
2023/03/28 05:47:11;;;;;;;15.00;5.90;;;;;;;7.76;92.37;98829.47;5077077;28;20044;-36
2023/03/28 05:49:38;;;;;;;8.65;4.72;;;;;;;7.91;90.54;98824.56;5085596;28;20166;-38
2023/03/28 05:52:04;;;;;;;9.43;4.30;;;;;;;8.07;88.95;98832.59;5084688;28;20044;-37
2023/03/28 05:54:30;;;;;;;7.50;3.75;;;;;;;8.07;86.66;98810.13;5082539;28;20044;-36
2023/03/28 05:56:56;;;;;;;5.10;3.25;;;;;;;8.45;84.76;98836.34;5082785;28;20730;-37
2023/03/28 05:59:24;;;;;;;5.97;3.08;;;;;;;8.68;83.05;98832.84;5089420;28;20051;-36
2023/03/28 06:01:54;;;;;;;4.43;2.75;;;;;;;8.70;81.66;98823.25;5072550;28;20085;-37
2023/03/28 06:04:21;;;;;;;7.35;3.60;;;;;;;9.11;79.86;98844.84;5088936;28;20077;-37
2023/03/28 06:06:50;;;;;;;5.15;2.88;;;;;;;9.48;77.62;98838.94;5052290;28;20040;-38
2023/03/28 06:09:22;;;;;;;5.53;3.00;;;;;;;9.72;75.66;98843.09;5079574;28;20186;-37
2023/03/28 06:11:55;;;;;;;5.05;3.20;;;;;;;9.90;74.39;98847.44;5067880;28;20066;-36
2023/03/28 06:14:21;;;;;;;4.05;2.70;;;;;;;9.91;73.22;98827.53;5089384;28;20456;-37
2023/03/28 06:16:47;;;;;;;5.18;3.35;;;;;;;9.88;72.06;98830.28;5070619;28;20039;-38
2023/03/28 06:19:13;;;;;;;7.00;4.18;;;;;;;10.21;71.29;98857.31;5068515;28;20084;-36
2023/03/28 06:21:39;;;;;;;6.60;4.00;;;;;;;10.47;70.13;98848.28;5087745;28;20061;-36
2023/03/28 06:24:06;;;;;;;6.20;3.80;;;;;;;10.75;69.32;98847.84;5088546;28;20043;-36
2023/03/28 06:26:38;;;;;;;7.00;4.07;;;;;;;10.70;68.10;98809.06;5084480;28;20095;-36
2023/03/28 06:29:04;;;;;;;7.03;4.55;;;;;;;11.34;66.89;98856.13;5088609;28;20044;-37
2023/03/28 06:31:44;;;;;;;8.30;4.50;;;;;;;11.77;65.32;98862.63;5088789;28;20046;-38
2023/03/28 06:34:11;;;;;;;6.38;4.22;;;;;;;12.41;63.28;98855.69;5057793;28;20097;-38
2023/03/28 06:36:48;;;;;;;7.40;4.22;;;;;;;12.95;61.70;98844.78;5055474;28;20131;-38
2023/03/28 06:39:14;;;;;;;7.30;4.47;;;;;;;13.45;60.04;98854.91;5054992;28;20044;-40
2023/03/28 06:41:40;;;;;;;8.07;4.97;;;;;;;13.82;58.44;98832.66;5088395;28;20044;-41
2023/03/28 06:44:06;;;;;;;7.43;4.80;;;;;;;14.56;56.63;98855.91;5087724;28;20048;-40
2023/03/28 06:46:58;;;;;;;5.85;4.28;;;;;;;15.52;54.64;98858.31;5086216;28;20155;-39
2023/03/28 06:49:24;;;;;;;10.50;4.63;;;;;;;16.30;52.52;98858.16;5086249;28;20059;-39
2023/03/28 06:52:09;;;;;;;10.40;4.93;;;;;;;17.12;50.89;98854.78;5086793;28;20039;-61
2023/03/28 06:54:35;;;;;;;10.40;4.57;;;;;;;17.75;48.64;98860.47;5068875;28;20621;-51
2023/03/28 06:57:01;;;;;;;8.45;4.80;;;;;;;17.78;47.63;98841.84;5088171;28;20055;-57
2023/03/28 06:59:28;;;;;;;8.25;4.75;;;;;;;17.79;46.78;98827.72;5052213;28;20174;-39
2023/03/28 07:02:00;;;;;;;8.13;5.07;;;;;;;17.94;46.04;98859.91;5082738;28;20126;-39
2023/03/28 07:04:33;;;;;;;12.48;5.13;;;;;;;17.99;45.22;98833.25;5071093;28;20052;-39
2023/03/28 07:06:59;;;;;;;8.45;5.45;;;;;;;18.10;45.15;98855.13;5088094;28;20110;-40
2023/03/28 07:09:26;;;;;;;8.48;5.05;;;;;;;18.15;44.51;98855.63;5083347;28;20564;-40
2023/03/28 07:12:03;;;;;;;8.88;5.43;;;;;;;18.26;44.08;98848.66;5072638;28;20040;-39
2023/03/28 07:14:29;;;;;;;6.97;4.95;;;;;;;18.25;42.99;98821.50;5088986;28;20044;-38
2023/03/28 07:16:56;;;;;;;7.95;4.78;;;;;;;18.78;42.48;98854.09;5070587;28;20150;-40
2023/03/28 07:19:22;;;;;;;9.85;5.05;;;;;;;19.13;41.76;98847.72;5086300;28;20126;-39
2023/03/28 07:21:54;;;;;;;6.63;4.65;;;;;;;19.05;41.49;98849.19;5085140;28;20040;-38
2023/03/28 07:24:22;;;;;;;7.57;5.07;;;;;;;18.35;41.85;98829.50;5087451;28;20089;-40
2023/03/28 07:27:20;;;;;;;9.43;5.50;;;;;;;17.56;42.88;98857.56;5082035;28;20044;-40
2023/03/28 07:29:47;;;;;;;10.65;5.00;;;;;;;17.23;42.91;98866.19;5070265;28;20094;-39
2023/03/28 07:32:13;;;;;;;10.20;5.13;;;;;;;17.37;43.06;98859.91;5066150;28;20044;-39
2023/03/28 07:34:42;;;;;;;6.53;5.25;;;;;;;17.65;42.48;98845.53;5038372;28;20516;-37
2023/03/28 07:37:11;;;;;;;;;;;;;;;17.11;43.06;98858.41;5088109;28;20689;-38
2023/03/28 07:39:55;;;;;;;12.77;6.78;;;;;;;16.52;44.14;98842.56;5068640;28;20005;-38
2023/03/28 07:42:24;;;;;;;;;;;;;;;16.05;44.41;98859.88;5069398;28;20052;-39
2023/03/28 07:44:49;;;;;;;11.93;5.75;;;;;;;15.51;44.95;98861.88;5081274;28;19985;-38
2023/03/28 07:47:17;;;;;;;14.00;5.00;;;;;;;14.99;45.41;98859.22;5087475;28;20122;-39
2023/03/28 07:49:44;;;;;;;13.68;5.60;;;;;;;14.71;45.48;98854.94;5068625;28;20051;-39
2023/03/28 07:52:11;;;;;;;10.88;5.18;;;;;;;14.54;45.70;98862.19;5070132;28;20046;-39
2023/03/28 07:54:37;;;;;;;17.45;5.40;;;;;;;14.21;46.20;98860.72;5081976;28;20037;-39
2023/03/28 07:57:04;;;;;;;11.80;5.28;;;;;;;13.86;46.68;98841.16;5076385;28;20594;-39
2023/03/28 07:59:59;;;;;;;10.70;5.35;;;;;;;13.57;47.14;98832.47;5077015;28;20068;-38
2023/03/28 08:02:26;;;;;;;10.52;5.22;;;;;;;13.44;47.17;98844.59;5095060;28;20511;-41
2023/03/28 08:04:52;;;;;;;12.68;5.93;;;;;;;13.58;47.13;98863.72;5069783;28;20572;-39
2023/03/28 08:07:24;;;;;;;11.98;6.00;;;;;;;13.69;46.89;98867.47;5076549;28;20075;-39
2023/03/28 08:09:52;;;;;;;16.00;5.82;;;;;;;14.06;46.46;98871.28;5066101;28;20062;-38
2023/03/28 08:12:25;;;;;;;9.93;5.72;;;;;;;14.17;46.22;98846.19;5076386;28;20125;-39
2023/03/28 08:14:52;;;;;;;9.88;5.70;;;;;;;14.12;46.27;98857.84;5083966;28;20040;-38
2023/03/28 08:17:21;;;;;;;14.65;5.60;;;;;;;14.21;46.56;98873.81;5076007;28;20444;-39
2023/03/28 08:19:48;;;;;;;12.98;5.55;;;;;;;14.05;46.49;98826.00;5067085;28;20463;-38
2023/03/28 08:22:29;;;;;;;7.90;5.70;;;;;;;14.81;45.84;98879.56;5079268;28;20056;-39
2023/03/28 08:25:30;;;;;;;13.25;5.28;;;;;;;14.95;45.67;98876.06;5045266;28;20049;-38
2023/03/28 08:27:56;;;;;;;11.13;5.07;;;;;;;14.98;45.15;98880.25;5078099;28;20063;-39
2023/03/28 08:30:22;;;;;;;16.83;7.60;;;;;;;14.86;45.10;98840.03;5065016;28;20033;-39
2023/03/28 08:32:55;;;;;;;37.85;19.73;;;;;;;15.37;44.35;98882.03;5066599;28;20040;-39
2023/03/28 08:35:21;;;;;;;14.20;6.22;;;;;;;15.28;44.04;98884.31;5078862;28;20055;-40
2023/03/28 08:37:51;;;;;;;10.27;6.18;;;;;;;14.99;44.40;98881.94;5066860;28;20071;-38
2023/03/28 08:40:19;;;;;;;30.77;15.75;;;;;;;15.14;44.15;98878.31;5036480;28;20044;-38
2023/03/28 08:42:50;;;;;;;18.05;6.40;;;;;;;15.40;43.42;98871.34;5086774;28;20066;-39
2023/03/28 08:45:32;;;;;;;12.00;6.43;;;;;;;15.58;43.11;98881.47;5086881;28;20743;-37
2023/03/28 08:48:20;;;;;;;14.50;6.38;;;;;;;16.04;42.60;98868.69;5086791;28;20104;-37
2023/03/28 08:50:56;;;;;;;13.27;6.77;;;;;;;16.17;42.29;98873.06;5085474;28;20138;-38
2023/03/28 08:53:29;;;;;;;12.52;5.35;;;;;;;15.97;42.18;98866.56;5058635;28;20539;-38
2023/03/28 08:55:58;;;;;;;10.30;5.15;;;;;;;15.72;42.38;98843.00;5072465;28;20140;-39
2023/03/28 08:58:27;;;;;;;9.63;5.70;;;;;;;15.79;42.13;98870.47;5069574;28;20774;-38
2023/03/28 09:00:53;;;;;;;16.42;5.50;;;;;;;15.74;41.50;98862.09;5082534;28;20036;-37
2023/03/28 09:03:20;;;;;;;9.55;5.63;;;;;;;16.26;41.07;98872.44;5069549;28;20698;-38
2023/03/28 09:05:55;;;;;;;9.68;5.65;;;;;;;17.48;39.60;98867.78;5079115;28;20043;-39
2023/03/28 09:08:52;;;;;;;13.02;5.18;;;;;;;18.35;37.99;98872.47;5085134;28;20051;-37
2023/03/28 09:11:59;;;;;;;12.73;4.90;;;;;;;19.28;35.97;98865.75;5084039;28;20051;-39
2023/03/28 09:14:54;;;;;;;14.02;5.10;;;;;;;18.91;36.27;98862.66;5085511;28;20083;-38
2023/03/28 09:17:39;;;;;;;11.27;5.82;;;;;;;18.25;37.00;98870.66;5058034;28;20397;-39
2023/03/28 09:20:31;;;;;;;9.48;5.50;;;;;;;19.27;35.52;98877.25;5069449;28;20529;-39
2023/03/28 09:23:14;;;;;;;10.55;4.68;;;;;;;21.06;33.32;98874.88;5068865;28;20063;-37
2023/03/28 09:26:13;;;;;;;10.38;4.45;;;;;;;21.39;32.21;98872.81;5081731;28;20044;-38
2023/03/28 09:28:50;;;;;;;13.27;5.80;;;;;;;22.80;30.85;98864.69;5049014;28;20044;-44
2023/03/28 09:31:18;;;;;;;11.43;5.18;;;;;;;22.65;30.65;98859.03;5068186;28;20040;-37
2023/03/28 09:33:46;;;;;;;11.90;5.85;;;;;;;24.31;29.11;98858.22;5078457;28;20039;-38
2023/03/28 09:36:21;;;;;;;9.63;4.78;;;;;;;26.03;26.93;98856.41;5066467;28;20032;-38
2023/03/28 09:38:57;;;;;;;7.65;4.25;;;;;;;27.16;25.46;98863.91;5050101;28;20068;-39
2023/03/28 09:41:28;;;;;;;7.95;5.13;;;;;;;27.19;24.78;98858.19;5082263;28;20052;-39
2023/03/28 09:44:16;;;;;;;10.10;5.05;;;;;;;24.69;25.63;98854.19;5089573;28;20032;-38
2023/03/28 09:47:07;;;;;;;11.80;5.00;;;;;;;23.53;26.62;98858.22;5078948;28;20101;-39
2023/03/28 09:49:42;;;;;;;9.88;5.25;;;;;;;23.33;27.25;98846.09;5081692;28;20044;-39
2023/03/28 09:52:22;;;;;;;11.70;4.50;;;;;;;24.56;26.29;98857.31;5081243;28;20047;-39
2023/03/28 09:54:48;;;;;;;14.32;4.65;;;;;;;25.34;25.31;98847.16;5072236;28;20051;-39
2023/03/28 09:57:14;;;;;;;7.30;4.13;;;;;;;26.41;24.12;98844.97;5055261;28;20515;-39
2023/03/28 09:59:46;;;;;;;8.90;4.60;;;;;;;25.82;23.49;98832.97;5085158;28;20568;-39
2023/03/28 10:02:23;;;;;;;8.15;4.53;;;;;;;25.92;23.92;98846.09;5089744;28;20076;-39
2023/03/28 10:04:51;;;;;;;8.38;4.43;;;;;;;26.90;23.36;98850.06;5099441;28;20036;-37
2023/03/28 10:07:31;;;;;;;15.68;7.32;;;;;;;24.78;24.07;98863.84;5069950;28;20563;-39
2023/03/28 10:10:23;;;;;;;10.18;4.78;;;;;;;21.98;26.72;98863.81;5073550;28;20044;-39
2023/03/28 10:13:01;;;;;;;10.63;5.60;;;;;;;20.21;28.97;98852.53;5088090;28;20040;-39
2023/03/28 10:15:43;;;;;;;12.95;5.63;;;;;;;18.88;30.57;98844.50;5071145;28;20508;-39
2023/03/28 10:18:30;;;;;;;14.35;5.10;;;;;;;20.73;29.11;98857.56;5075456;28;20048;-40
2023/03/28 10:21:30;;;;;;;13.98;7.50;;;;;;;24.38;25.78;98851.28;5073803;28;20519;-40
2023/03/28 10:24:09;;;;;;;9.27;5.60;;;;;;;26.50;23.93;98849.25;5080533;28;20131;-38
2023/03/28 10:26:36;;;;;;;14.52;5.35;;;;;;;27.60;22.83;98856.03;5070635;28;20056;-39
2023/03/28 10:29:06;;;;;;;12.05;4.95;;;;;;;27.33;22.54;98861.91;5067317;28;20040;-38
2023/03/28 10:31:33;;;;;;;11.98;5.03;;;;;;;25.41;23.81;98857.97;5085105;28;20035;-38
2023/03/28 10:34:28;;;;;;;9.13;5.03;;;;;;;24.76;24.92;98860.50;5077683;28;20431;-39
2023/03/28 10:37:29;;;;;;;11.30;4.43;;;;;;;26.48;23.63;98829.13;5088342;28;20058;-39
2023/03/28 10:40:19;;;;;;;7.70;3.60;;;;;;;28.22;21.80;98845.88;5081629;28;20051;-40
2023/03/28 10:43:11;;;;;;;7.77;4.50;;;;;;;28.67;20.72;98843.16;5071021;28;20081;-39
2023/03/28 10:46:22;;;;;;;11.07;4.65;;;;;;;27.79;21.54;98815.44;5051755;28;20677;-38
2023/03/28 10:49:18;;;;;;;10.67;5.13;;;;;;;27.80;21.72;98841.16;5050296;28;20043;-38
2023/03/28 10:51:54;;;;;;;10.32;4.72;;;;;;;28.04;21.19;98834.72;5036580;28;20041;-38
2023/03/28 10:54:38;;;;;;;10.88;5.40;;;;;;;28.33;21.28;98860.63;5059370;28;21074;-39
2023/03/28 10:57:30;;;;;;;11.73;6.40;;;;;;;29.17;20.74;98828.88;5060888;28;20036;-38
2023/03/28 11:00:08;;;;;;;17.60;10.90;;;;;;;29.98;20.35;98860.50;5050789;28;20134;-38
2023/03/28 11:02:39;;;;;;;15.95;10.20;;;;;;;30.89;19.33;98856.59;5047821;28;20123;-39
2023/03/28 11:05:30;;;;;;;7.68;4.50;;;;;;;31.43;18.49;98843.06;5071616;28;20431;-38
2023/03/28 11:08:12;;;;;;;7.60;3.67;;;;;;;31.46;17.68;98849.88;5061750;28;20450;-39
2023/03/28 11:10:51;;;;;;;6.32;3.72;;;;;;;31.69;17.26;98846.81;5026625;28;20123;-39
2023/03/28 11:14:09;;;;;;;4.28;3.70;;;;;;;31.09;17.27;98838.69;5081754;28;20044;-39
2023/03/28 11:17:19;;;;;;;9.02;4.43;;;;;;;31.14;17.40;98832.72;5077231;28;20048;-40
2023/03/28 11:20:16;;;;;;;11.57;5.30;;;;;;;31.94;17.98;98840.56;5054480;28;20052;-39
2023/03/28 11:22:59;;;;;;;8.73;5.78;;;;;;;32.44;17.70;98838.19;5091513;28;20061;-39
2023/03/28 11:25:41;;;;;;;13.90;6.70;;;;;;;32.81;17.17;98831.19;5076344;28;20068;-40
2023/03/28 11:28:36;;;;;;;8.48;6.53;;;;;;;32.74;17.55;98835.78;5063327;28;20552;-39
2023/03/28 11:31:41;;;;;;;11.55;6.28;;;;;;;32.47;17.65;98832.34;5063786;28;20534;-38
2023/03/28 11:34:20;;;;;;;10.30;5.85;;;;;;;32.72;17.68;98835.16;5074380;28;20044;-39
2023/03/28 11:37:03;;;;;;;12.25;6.80;;;;;;;32.82;17.42;98819.34;5043519;28;20479;-38
2023/03/28 11:39:32;;;;;;;13.68;5.63;;;;;;;32.66;17.52;98827.97;5099778;28;20131;-39
2023/03/28 11:42:04;;;;;;;11.38;5.75;;;;;;;32.21;17.40;98821.69;5084368;28;20063;-38
2023/03/28 11:44:54;;;;;;;10.13;5.80;;;;;;;32.54;16.98;98821.56;5104341;28;20097;-38
2023/03/28 11:47:27;;;;;;;9.75;6.10;;;;;;;32.83;16.79;98812.94;5072205;28;20035;-39
2023/03/28 11:50:07;;;;;;;11.70;5.53;;;;;;;32.10;16.97;98795.41;5054834;28;20061;-38
2023/03/28 11:53:06;;;;;;;11.40;5.03;;;;;;;31.38;17.61;98813.31;5053829;28;20040;-38
2023/03/28 11:55:43;;;;;;;9.65;5.10;;;;;;;30.80;18.20;98812.19;5087017;28;20419;-39
2023/03/28 11:58:26;;;;;;;7.45;4.85;;;;;;;30.19;19.07;98795.22;5083454;28;20051;-38
2023/03/28 12:01:08;;;;;;;8.55;5.03;;;;;;;29.84;19.10;98797.88;5066866;28;20044;-38
2023/03/28 12:03:55;;;;;;;11.93;4.80;;;;;;;29.91;18.59;98803.31;5094507;28;20048;-39
2023/03/28 12:06:46;;;;;;;7.18;4.70;;;;;;;29.68;18.96;98792.84;5081670;28;20040;-42
2023/03/28 12:09:33;;;;;;;11.32;4.43;;;;;;;29.11;19.36;98782.28;5041307;28;20138;-38